x

9449880 - Friday Harbor, Wa (frdw1) Weather Station

3:36 - Tue 28th Jun 2016 All times are PDT. -7 hours from GMT.

  • Wind
    1mph, 2mph gusts
  • Sea Temp 51°f
  • Aire Temp 52°f
  • Sea Pressure 1021.4mb
  • 9449880 - Friday Harbor, Wa
  • 9449880 - Friday Harbor, Wa

More Historic Weather Station data

Upgrade to MSW Pro to gain access to the past 30 days of data for over 8000 Wavebouys and Weather Stations around the globe.

Join Pro

Comparision Forecast

View Surf forecast
   
mar 06/28 3:36 1 2 mph 1021.4mb 51f 52f
3:30 1 2 mph 1021.4mb 51f 52f
3:24 1 3 mph 1021.4mb 51f 53f
3:18 1 2 mph 1021.4mb 51f 53f
3:12 1 2 mph 1021.4mb 51f 53f
3:06 2 5 mph 1021.2mb 51f 53f
3:00 3 5 mph 1021.2mb 51f 53f
2:36 5 6 mph 1021.2mb 51f 53f
2:30 5 6 mph 1021.1mb 51f 53f
2:24 5 6 mph 1021mb 51f 53f
2:18 5
mph
1021mb 51f 53f
2:12 2 3 mph 1021mb 51f 53f
2:06 1 2 mph 1021mb 51f 54f
2:00 2 5 mph 1020.9mb 51f 54f
1:36 2 3 mph 1020.8mb 51f 54f
1:30 3 5 mph 1020.8mb 51f 54f
1:24 5
mph
1020.8mb 51f 54f
1:18 3 5 mph 1020.8mb 51f 54f
1:12 5 6 mph 1020.8mb 51f 54f
1:06 3
mph
1020.8mb 51f 55f
1:00 1 2 mph 1020.8mb 51f 55f
12:36  -  1 mph 1020.7mb 51f 56f
12:30  -  3 mph 1020.6mb 51f 56f
12:24 2 3 mph 1020.6mb 51f 56f
12:18 1 2 mph 1020.5mb 51f 56f
12:12  -  2 mph 1020.5mb 51f 56f
12:06  -  1 mph 1020.4mb 51f 56f
12:00 1 2 mph 1020.4mb 51f 56f
lun 06/27 11:36  -  1 mph 1020.3mb 51f 56f
11:30  -  2 mph 1020.3mb 51f 56f
11:24 1 2 mph 1020.3mb 51f 56f
11:18  -  2 mph 1020.3mb 51f 56f
11:12 1 2 mph 1020.3mb 51f 55f
11:06 2 3 mph 1020.3mb 51f 55f
11:00 3
mph
1020.3mb 51f 55f
10:36 2 5 mph 1020.2mb 51f 56f
10:30 3 6 mph 1020.2mb 51f 56f
10:24 3 5 mph 1020.2mb 51f 56f
10:18 2 6 mph 1020.2mb 51f 56f
10:12 3 6 mph 1020.1mb 51f 56f
10:06 6 8 mph 1020.1mb 51f 56f
10:00 5 7 mph 1020mb 51f 56f
9:36 6 7 mph 1019.7mb 51f 58f
9:30 1 3 mph 1019.6mb 51f 61f
9:24 2 3 mph 1019.5mb 51f 61f
9:18 1 3 mph 1019.5mb 51f 61f
9:12 1 2 mph 1019.4mb 51f 62f
9:06 2 3 mph 1019.4mb 51f 61f
9:00 1 2 mph 1019.4mb 51f 61f
8:36 2 5 mph 1019.5mb 51f 60f
8:30  -  3 mph 1019.5mb 51f 58f
8:24 2 8 mph 1019.5mb 51f 57f
8:18 3 6 mph 1019.5mb 51f 57f
8:12 3 6 mph 1019.5mb 51f 58f
8:06 6 9 mph 1019.4mb 52f 58f
8:00 6 8 mph 1019.4mb 52f 57f
7:36  -  3 mph 1019.3mb 52f 59f
7:30 2 5 mph 1019.4mb 52f 59f
7:24  -  1 mph 1019.3mb 52f 60f
7:18 3 7 mph 1019.4mb 53f 60f
7:12 6 7 mph 1019.4mb 53f 58f
7:06 6 8 mph 1019.4mb 53f 59f
7:00 7 8 mph 1019.3mb 53f 58f
6:36 2 3 mph 1019.3mb 52f 58f
6:30 1 3 mph 1019.3mb 52f 58f
6:24 1 7 mph 1019.4mb 52f 59f
6:18 2 6 mph 1019.5mb 52f 58f
6:12 6 8 mph 1019.6mb 52f 57f
6:06 5 6 mph 1019.6mb 52f 59f
6:00 2 7 mph 1019.7mb 52f 60f
5:36 1 8 mph 1019.8mb 52f 63f
5:30 8 10 mph 1019.8mb 53f 63f
5:24 9 10 mph 1019.8mb 53f 64f
5:18 9 11 mph 1019.9mb 53f 64f
5:12 9 10 mph 1019.9mb 53f 67f
5:06 8 10 mph 1020mb 53f 68f
5:00 6 9 mph 1020mb 53f 69f
4:36  -  mph 1020.1mb 53f 67f
4:30  -  mph 1020.1mb 53f 65f
4:24  -  mph 1020.2mb 53f 65f
4:18  -  mph 1020.1mb 53f 71f
4:12  -  mph 1020.1mb 53f 71f
4:06  -  mph 1020.2mb 53f 71f
4:00  -  mph 1020.3mb 53f 71f
3:36  -  mph 1020.5mb 53f 70f
3:30  -  mph 1020.5mb 53f 70f
3:24  -  mph 1020.5mb 53f 70f
3:18  -  mph 1020.5mb 52f 71f
3:12  -  mph 1020.6mb 52f 70f
3:06  -  mph 1020.6mb 52f 70f
3:00  -  mph 1020.6mb 52f 70f
2:36 7 9 mph 1020.7mb 53f 69f
2:30 7 9 mph 1020.8mb 53f 69f
2:24 6 9 mph 1020.8mb 53f 69f
2:18 6 9 mph 1020.8mb 53f 69f
2:12 6 7 mph 1020.8mb 52f 69f
2:06 6 7 mph 1020.8mb 52f 69f
2:00 5 8 mph 1020.7mb 52f 69f
1:36 1 3 mph 1020.9mb 51f 67f
1:30 3 5 mph 1020.9mb 51f 64f
1:24 2 3 mph 1020.9mb 51f 66f
1:18 3 5 mph 1020.9mb 51f 68f
1:12 3 5 mph 1020.8mb 51f 68f
1:06 3 5 mph 1020.8mb 51f 68f
1:00 3
mph
1020.9mb 51f 68f
12:36 2 3 mph 1020.9mb 51f 69f
12:30 1 3 mph 1020.9mb 51f 69f
12:24 2 3 mph 1020.9mb 51f 69f
12:18 2 6 mph 1020.9mb 51f 69f
12:12 3 6 mph 1020.9mb 51f 69f
12:06 5 6 mph 1020.9mb 51f 69f
12:00 5 8 mph 1020.9mb 51f 69f
11:36 8 10 mph 1020.9mb 51f 69f
11:30 8 10 mph 1020.9mb 51f 68f
11:24 8 9 mph 1021mb 51f 68f
11:18 7 9 mph 1021.1mb 51f 68f
11:12 9 11 mph 1021mb 51f 68f
11:06 8 10 mph 1021.1mb 51f 68f
11:00 8 11 mph 1021.1mb 51f 68f
10:36 9 11 mph - - 67f
10:30 8 11 mph - - 67f
10:24 8 10 mph - - 67f
10:18 7 9 mph - - 67f
10:12 6 10 mph - - 67f
10:06 7 9 mph - - 67f
10:00 8 11 mph - - 67f
9:36 8 11 mph - - 66f
9:30 6 9 mph 1021.2mb 51f 64f
9:24  -  2 mph 1021.3mb 51f 61f
9:18 2 5 mph 1021.3mb 51f 59f
9:12 1 3 mph 1021.2mb 51f 58f
9:06 2 3 mph 1021.2mb 51f 56f
9:00 3
mph
1021.2mb 51f 57f
8:36 2 3 mph 1021.2mb 51f 56f
8:30 1 2 mph 1021.2mb 51f 57f
8:24  -  2 mph 1021.1mb 51f 56f
8:18  -  2 mph 1021.1mb 51f 56f
8:12 1 2 mph 1021.1mb 51f 56f
8:06 2 3 mph 1021.1mb 51f 55f
8:00 2 3 mph 1021.2mb 51f 55f
7:36 2
mph
1021.1mb 51f 56f
7:30 1 2 mph 1021.1mb 51f 55f
7:24 1 2 mph 1021.1mb 51f 55f
7:18 1 2 mph 1021.1mb 51f 57f
7:12  -  1 mph 1021mb 51f 57f
7:06  -  2 mph 1021mb 51f 58f
7:00 1 2 mph 1021mb 51f 57f
6:36 2
mph
1020.9mb 51f 54f
6:30  -  1 mph 1020.9mb 51f 54f
6:24  -  1 mph 1020.9mb 51f 54f
6:18  -  1 mph 1020.8mb 51f 53f
6:12 1 2 mph 1020.8mb 51f 54f
6:06 1 2 mph 1020.7mb 51f 53f
6:00 2
mph
1020.7mb 51f 53f
5:36  -  1 mph 1020.4mb 51f 53f
5:30 1 2 mph 1020.4mb 51f 53f
5:24  -  1 mph 1020.4mb 51f 53f
5:18  -  1 mph 1020.4mb 51f 53f
5:12  -  2 mph 1020.4mb 51f 53f
5:06 1 2 mph 1020.4mb 51f 53f
5:00 1 2 mph 1020.3mb 51f 52f
4:36  -  mph 1020.1mb 51f 53f
4:30  -  1 mph 1020.2mb 51f 53f
4:24  -  2 mph 1020.2mb 51f 53f
4:18  -  2 mph 1020.1mb 51f 53f
4:12 1 2 mph 1020.1mb 51f 53f
4:06 1 2 mph 1020.1mb 51f 53f
4:00  -  1 mph 1020.1mb 51f 53f
3:54  -  1 mph 1020.1mb 51f 53f
3:48  -  1 mph 1020.1mb 51f 53f
3:36 2 3 mph 1020.1mb 51f 53f
3:30 2 3 mph 1020.1mb 51f 53f
3:24 2 3 mph 1020.1mb 51f 53f
3:18 1 3 mph 1020.1mb 51f 54f
3:12 3 5 mph 1020.1mb 51f 53f
3:06 2 3 mph - - 54f
3:00 2 3 mph 1020.1mb 51f 55f
2:54 2 3 mph 1020.1mb 51f 55f
2:48 1 2 mph 1020mb 51f 54f
2:36  -  1 mph 1020mb 51f 55f
2:30  -  1 mph 1020.1mb 51f 55f
2:24  -  1 mph 1020mb 51f 55f
2:18  -  1 mph 1020mb 51f 55f
2:12  -  mph 1020mb 51f 54f
2:06  -  1 mph 1020mb 51f 54f
2:00  -  mph 1020.1mb 51f 54f
1:54  -  mph 1020mb 51f 54f
1:48  -  1 mph 1020.1mb 51f 54f
1:36 2
mph
- - 54f
1:30 2 3 mph 1020mb 51f 54f
1:24 3
mph
1020.1mb 51f 54f
1:18 2 3 mph 1020.1mb 51f 55f
1:12  -  2 mph 1020.1mb 51f 55f
1:06 2 3 mph 1020.1mb 51f 55f
1:00 3
mph
1020mb 51f 56f
12:54 2
mph
1020.1mb 51f 56f
12:48 1 2 mph - - 56f
12:36 2 3 mph 1020.1mb 51f 56f
12:30 3
mph
1020.1mb 51f 56f
12:24  -  2 mph 1020mb 51f 57f
12:18  -  1 mph 1020.1mb 51f 57f
12:12  -  1 mph 1020mb 51f 57f
12:06 1 2 mph 1020.1mb 51f 56f
12:00 1 2 mph 1020.1mb 51f 57f
dom 06/26 11:54  -  1 mph 1020mb 51f 57f
11:48  -  1 mph 1020mb 51f 57f
11:36  -  1 mph 1019.9mb 51f 57f
11:30  -  1 mph 1019.9mb 51f 57f
11:24  -  2 mph 1019.8mb 51f 57f
11:18  -  2 mph 1019.8mb 51f 57f
11:12 2
mph
1019.8mb 51f 57f
11:06  -  2 mph 1019.8mb 51f 59f
11:00 2 3 mph 1019.9mb 51f 58f
10:54 1 2 mph 1019.9mb 51f 58f
10:48 2
mph
1020mb 51f 59f
10:36  -  1 mph 1020mb 51f 59f
10:30 1 2 mph 1020mb 51f 59f
10:24  -  2 mph 1020.1mb 51f 59f
10:18  -  2 mph 1020.2mb 51f 60f
10:12 2
mph
1020.2mb 51f 60f
10:06 2
mph
1020.2mb 51f 60f
10:00  -  2 mph 1020.2mb 51f 59f
9:54  -  1 mph 1020.2mb 51f 61f
9:48 1 2 mph 1020.1mb 51f 61f
9:36  -  1 mph 1020.1mb 51f 59f
9:30  -  2 mph 1020.2mb 51f 60f
9:24  -  1 mph 1020.2mb 51f 60f
9:18  -  1 mph 1020.3mb 51f 62f
9:12  -  1 mph 1020.2mb 51f 62f
9:06  -  1 mph 1020.2mb 51f 62f
9:00  -  2 mph 1020.2mb 51f 62f
8:54 2
mph
1020.2mb 51f 61f
8:48 2 3 mph 1020.1mb 51f 60f
8:36  -  2 mph 1020.2mb 51f 60f
8:30 3
mph
1020.2mb 51f 59f
8:24 1 3 mph 1020.2mb 51f 67f
8:18 1 2 mph 1020.2mb 51f 68f
8:12  -  1 mph 1020.2mb 51f 68f
8:06  -  1 mph 1020.1mb 51f 68f
8:00  -  1 mph 1020.2mb 51f 69f
7:54  -  2 mph 1020.3mb 51f 69f
7:48 2 3 mph 1020.3mb 51f 69f
7:36 2 3 mph 1020.3mb 51f 68f
7:30 2 3 mph 1020.2mb 51f 68f
7:24 1 3 mph 1020.2mb 51f 69f
7:18  -  1 mph 1020.2mb 51f 69f
7:12  -  2 mph 1020.2mb 51f 69f
7:06 1 3 mph 1020.2mb 52f 70f
7:00 3 6 mph 1020.2mb 52f 70f
6:54 1 3 mph 1020.2mb 52f 70f
6:48  -  3 mph 1020.1mb 52f 69f
6:36 1 5 mph - 52f 70f
6:30 2 5 mph - 52f 70f
6:24 2 6 mph - 52f 70f
6:18 3 6 mph - 52f 70f
6:12 2 6 mph - 52f 70f
6:06 1 5 mph - 52f 70f
6:00 1 5 mph - 52f 71f
5:54 2 5 mph - 52f 71f
5:48 1 6 mph - 52f 71f
5:36  -  mph 1020.8mb 52f 71f
5:30  -  mph 1020.8mb 52f 72f
5:24  -  mph 1020.8mb 52f 71f
5:18  -  mph 1020.8mb 52f 71f
5:12  -  mph 1020.8mb 52f 71f
5:06  -  mph 1020.9mb 52f 71f
5:00  -  mph 1021mb 52f 71f
4:36  -  mph - 52f 71f
4:30  -  mph - 52f 71f
4:24  -  mph - 52f 71f
4:18  -  mph - 52f 70f
4:12  -  mph - 52f 70f
4:06  -  mph - 52f 70f
4:00  -  mph - 52f 70f
3:54  -  mph - 52f 69f
3:48  -  mph - 52f 70f
3:36 3 7 mph 1021.8mb 52f 69f
3:30 5 8 mph 1021.9mb 52f 69f
3:24 6 10 mph 1022mb 51f 69f
3:18 5 8 mph 1022.1mb 51f 69f
3:12 5 9 mph 1022.1mb 51f 69f
3:06 3 9 mph 1022.2mb 51f 69f
3:00 5 9 mph - - 69f
2:54 2 7 mph 1022.3mb 52f 69f
2:48 3 7 mph 1022.3mb 52f 69f
2:36 5 8 mph 1022.4mb 52f 67f
2:30 3 9 mph 1022.5mb 52f 67f
2:24 5 10 mph 1022.5mb 52f 67f
2:18 8 11 mph 1022.5mb 52f 67f
2:12 7 10 mph 1022.5mb 52f 67f
2:06 6 10 mph 1022.6mb 52f 67f
2:00 8 13 mph 1022.6mb 52f 67f
1:54 8 11 mph 1022.7mb 52f 67f
1:48 9 11 mph 1022.8mb 51f 66f
1:36 6 9 mph 1023mb 51f 67f
1:30 6 10 mph 1023mb 51f 66f
1:24 7 10 mph 1023.1mb 51f 66f
1:18 7 10 mph 1023.2mb 51f 65f
1:12 8 10 mph 1023.2mb 51f 65f
1:06 7 10 mph 1023.3mb 51f 65f
1:00 6 10 mph 1023.3mb 51f 65f
12:54 6 9 mph 1023.3mb 51f 65f
12:48 5 8 mph 1023.3mb 51f 66f
12:36 3 11 mph 1023.3mb 51f 65f
12:30 6 10 mph 1023.3mb 51f 65f
12:24 6 11 mph 1023.4mb 51f 65f
12:18 6 9 mph 1023.4mb 51f 65f
12:12 5 9 mph 1023.4mb 51f 65f
12:06 5 10 mph 1023.4mb 51f 65f
12:00 1 7 mph - - 64f
11:54 2 8 mph 1023.5mb 51f 64f
11:48 6 9 mph 1023.5mb 51f 64f
11:36 5 7 mph 1023.7mb 51f 64f
11:30 3 8 mph 1023.8mb 51f 64f
11:24 3 7 mph 1023.8mb 51f 64f
11:18 5 8 mph 1023.8mb 51f 64f
11:12 3 6 mph 1023.9mb 51f 64f
11:06 2 6 mph 1023.9mb 51f 64f
11:00 3 9 mph 1023.9mb 51f 64f
10:54 2 9 mph 1023.9mb 51f 64f
10:48 2 7 mph 1024mb 51f 63f
10:36 3 7 mph 1024.1mb 51f 63f
10:30 2 7 mph 1024.1mb 51f 63f
10:24 2 9 mph 1024.1mb 51f 63f
10:18 3 9 mph 1024.1mb 51f 63f
10:12 5 9 mph 1024.2mb 51f 63f
10:06 5 7 mph 1024.2mb 51f 63f
10:00 3 9 mph 1024.3mb 51f 63f
9:54 5 9 mph 1024.3mb 51f 63f
9:48 3 8 mph 1024.3mb 51f 63f
9:36 6 11 mph 1024.3mb 51f 62f
9:30 2 8 mph 1024.3mb 51f 63f
9:24 5 8 mph 1024.3mb 51f 63f
9:18 3 7 mph 1024.3mb 51f 63f
9:12 3 7 mph 1024.2mb 51f 62f
9:06 3 8 mph 1024.2mb 51f 62f
9:00 3 7 mph 1024.3mb 51f 62f
8:54 3 9 mph 1024.3mb 51f 62f
8:48 3 9 mph 1024.2mb 51f 62f
8:36 5 8 mph 1024.2mb 51f 62f
8:30 6 8 mph 1024.3mb 51f 61f
8:24 6 9 mph 1024.3mb 51f 61f
8:18 3 7 mph 1024.3mb 51f 61f
8:12 5 8 mph 1024.3mb 51f 60f
8:06 5 8 mph 1024.2mb 51f 60f
8:00 2 6 mph 1024.2mb 51f 60f
7:54 3 6 mph 1024.1mb 51f 60f
7:48 1 3 mph - - 58f
7:36 2 5 mph 1024mb 51f 54f
7:30  -  2 mph 1024.1mb 51f 54f
7:24 1 2 mph 1024.1mb 51f 53f
7:18  -  5 mph 1024.1mb 51f 54f
7:12 5 7 mph 1024mb 51f 54f
7:06 3 6 mph 1024mb 51f 53f
7:00  -  2 mph 1024mb 51f 52f
6:54 2
mph
1024.1mb 51f 52f
6:48  -  1 mph 1024mb 51f 54f
6:36  -  2 mph 1024mb 51f 53f
6:30  -  1 mph 1024mb 51f 53f
6:24  -  1 mph 1024mb 51f 52f
6:18  -  1 mph 1024mb 51f 52f
6:12  -  1 mph 1024mb 51f 52f
6:06  -  2 mph 1024mb 51f 51f
6:00 1 2 mph 1024mb 51f 51f
5:54 1
mph
1024mb 51f 51f
5:48  -  1 mph 1024mb 51f 51f
5:36  -  1 mph 1024mb 51f 51f
5:30  -  1 mph 1024mb 51f 50f
5:24  -  1 mph 1023.9mb 51f 49f
5:18  -  3 mph 1024mb 51f 49f
5:12 2 3 mph 1024mb 51f 50f
5:06 2
mph
1023.9mb 51f 50f
5:00  -  5 mph 1023.8mb 51f 50f
4:54  -  2 mph 1023.8mb 51f 51f
4:48 1 3 mph 1023.9mb 51f 50f
4:36 2 3 mph 1023.9mb 51f 49f
4:30  -  1 mph 1023.9mb 51f 50f
4:24 1 2 mph 1023.9mb 51f 49f
4:18 2
mph
1023.9mb 51f 50f
4:12 2
mph
1023.9mb 51f 50f
4:06 1 2 mph 1023.9mb 51f 51f
4:00 2
mph
1023.9mb 51f 50f
3:54  -  1 mph 1024mb 51f 50f
3:48  -  1 mph 1023.9mb 51f 50f
3:36 1 3 mph 1024mb 51f 50f
3:30 2 3 mph 1024mb 51f 50f
3:24 2 3 mph 1024mb 51f 51f
3:18 2
mph
1023.9mb 51f 51f
3:12 1 2 mph 1024mb 51f 51f
3:06 2 3 mph 1024mb 51f 50f
3:00 2 3 mph 1023.9mb 51f 50f
2:54 2
mph
1023.9mb 51f 51f
2:48  -  1 mph 1023.9mb 51f 51f
2:36  -  mph 1024mb 51f 51f
2:30  -  1 mph 1024mb 51f 51f
2:24 1 2 mph 1023.9mb 51f 51f
2:18  -  3 mph 1024mb 51f 51f
2:12 2 3 mph 1023.9mb 51f 51f
2:06  -  1 mph 1023.9mb 51f 51f
2:00  -  1 mph - - 51f
1:54  -  1 mph 1024mb 51f 52f
1:48  -  1 mph 1024mb 51f 52f
1:36  -  1 mph 1024.1mb 51f 52f
1:30  -  1 mph 1024.1mb 51f 52f
1:24  -  2 mph 1024.1mb 51f 52f
1:18  -  2 mph 1024mb 51f 52f
1:12  -  mph 1024mb 51f 51f
1:06  -  mph 1023.9mb 51f 51f
1:00  -  2 mph 1023.9mb 51f 52f
12:54 1 2 mph 1023.9mb 51f 52f
12:48  -  2 mph 1024mb 51f 52f
12:36 1 2 mph 1024mb 51f 52f
12:30 1 2 mph 1024mb 51f 52f
12:24  -  mph 1024mb 51f 52f
12:18  -  mph 1024mb 51f 52f
12:12  -  mph 1024mb 51f 52f
12:06  -  1 mph 1023.9mb 51f 52f
12:00  -  2 mph 1023.9mb 51f 53f
sáb 06/25 11:54 1 2 mph 1023.9mb 51f 53f
11:48  -  mph 1023.9mb 51f 52f
11:36  -  mph 1023.9mb 51f 53f
11:30  -  mph 1023.9mb 51f 53f
11:24  -  1 mph 1023.9mb 51f 53f
11:18  -  mph 1023.9mb 51f 53f
11:12  -  1 mph 1023.9mb 51f 53f
11:06  -  1 mph 1023.9mb 51f 53f
11:00  -  1 mph - - 53f
10:54  -  mph 1023.9mb 51f 54f
10:48  -  mph 1023.9mb 51f 54f
10:36  -  1 mph 1023.9mb 51f 54f
10:30  -  1 mph 1023.9mb 51f 54f
10:24 1
mph
1023.8mb 51f 54f
10:18 1
mph
1023.9mb 51f 55f
10:12  -  1 mph 1023.9mb 51f 54f
10:06  -  1 mph 1023.9mb 51f 54f
10:00 1
mph
- - 55f
9:54  -  2 mph 1023.8mb 51f 54f
9:48 1 2 mph 1023.8mb 51f 54f
9:36  -  1 mph 1023.8mb 51f 54f
9:30 1 2 mph 1023.8mb 51f 54f
9:24 2 3 mph 1023.7mb 51f 54f
9:18  -  2 mph - - 55f
9:12 2
mph
1023.7mb 51f 55f
9:06 2 3 mph 1023.6mb 51f 54f
9:00 2 3 mph 1023.6mb 51f 54f
8:54  -  2 mph 1023.5mb 51f 56f
8:48 1 2 mph 1023.5mb 51f 55f
8:36  -  2 mph 1023.5mb 51f 57f
8:30 1 2 mph 1023.5mb 51f 57f
8:24  -  mph 1023.5mb 51f 58f
8:18  -  1 mph 1023.6mb 51f 59f
8:12  -  1 mph 1023.6mb 51f 58f
8:06  -  1 mph 1023.6mb 51f 57f
8:00  -  mph 1023.5mb 51f 59f
7:54  -  mph 1023.6mb 51f 60f
7:48  -  1 mph 1023.6mb 51f 60f
7:36  -  1 mph 1023.6mb 51f 60f
7:30  -  1 mph 1023.6mb 51f 61f
7:24  -  mph 1023.7mb 51f 62f
7:18  -  1 mph 1023.7mb 51f 61f
7:12  -  2 mph 1023.8mb 51f 62f
7:06 1 2 mph 1023.8mb 51f 63f
7:00 1 2 mph 1023.8mb 51f 64f
6:54 1 2 mph 1023.8mb 51f 64f
6:48  -  1 mph 1023.9mb 51f 64f
6:36  -  mph 1024mb 51f 63f
6:30  -  mph 1024mb 51f 64f
6:24  -  mph 1024.1mb 51f 64f
6:18  -  mph 1024.1mb 51f 63f
6:12  -  mph 1024mb 51f 63f
6:06  -  mph 1024.1mb 51f 62f
6:00  -  mph 1024.1mb 52f 62f
5:54  -  mph 1024.2mb 52f 62f
5:48  -  mph 1024.2mb 52f 62f
5:36 5 7 mph 1024.3mb 52f 63f
5:30 7 9 mph 1024.4mb 52f 64f
5:24 8 10 mph 1024.4mb 52f 64f
5:18 6
mph
1024.4mb 52f 64f
5:12 7 11 mph 1024.4mb 52f 64f
5:06 7 8 mph 1024.4mb 52f 64f
5:00 7 8 mph 1024.4mb 52f 64f
4:54 5 8 mph 1024.4mb 52f 64f
4:48 7 8 mph 1024.5mb 52f 64f
4:36  -  mph 1024.6mb - 63f
4:30  -  mph 1024.7mb - 64f
4:24  -  mph 1024.7mb - 64f
4:18  -  mph 1024.7mb - 63f
4:12  -  mph 1024.8mb - 62f
4:06  -  mph 1024.8mb - 62f
4:00  -  mph 1024.9mb - 61f
3:54  -  mph 1024.9mb - 62f
3:48  -  mph 1024.9mb - 61f
3:36 5 6 mph 1025mb 52f 61f
3:30 5
mph
1025.1mb 52f 61f
3:24 3 5 mph 1025.1mb 52f 61f
3:18 5 6 mph 1025.2mb 52f 61f
3:12 6 7 mph 1025.2mb 53f 61f
3:06 5 7 mph 1025.3mb 53f 61f
3:00 6 7 mph 1025.3mb 53f 62f
2:54 6 7 mph 1025.3mb 53f 61f
2:48 3 5 mph 1025.3mb 53f 61f
2:36 1 2 mph 1025.4mb 52f 61f
2:30 1 2 mph 1025.4mb 52f 62f
2:24 2 3 mph 1025.3mb 51f 61f
2:18 2 3 mph 1025.3mb 51f 61f
2:12 5 6 mph 1025.3mb 51f 60f
2:06 5 6 mph 1025.3mb 51f 60f
2:00 3 5 mph 1025.4mb 51f 60f
1:54 3 6 mph 1025.4mb 51f 60f
1:48 5 6 mph 1025.4mb 51f 60f
1:36 3 6 mph 1025.5mb 51f 60f
1:30 5 6 mph 1025.4mb 51f 59f
1:24 5 6 mph 1025.4mb 51f 60f
1:18 5 6 mph 1025.4mb 51f 59f
1:12 6
mph
1025.5mb 51f 59f
1:06 6
mph
1025.4mb 51f 59f
1:00 5 6 mph 1025.4mb 51f 59f
12:54 3 6 mph 1025.5mb 51f 58f
12:48 5 6 mph 1025.5mb 51f 58f
12:36 2
mph
1025.5mb 51f 59f
12:30  -  1 mph 1025.5mb 51f 59f
12:24  -  2 mph 1025.5mb 51f 60f
12:18  -  2 mph 1025.5mb 51f 59f
12:12 2 5 mph 1025.5mb 51f 58f
12:06 3 6 mph 1025.5mb 51f 57f
12:00 3 6 mph 1025.5mb 51f 56f
11:54 3 6 mph 1025.5mb 51f 56f
11:48 5 6 mph 1025.5mb 51f 56f
11:36 6 7 mph 1025.5mb 51f 55f
11:30 7 8 mph 1025.6mb 51f 54f
11:24 7 8 mph 1025.5mb 51f 54f
11:18 7 8 mph 1025.5mb 51f 54f
11:12 6 7 mph 1025.5mb 51f 53f
11:06 6 7 mph 1025.6mb 51f 53f
11:00 6 7 mph 1025.5mb 51f 53f
10:54 6
mph
1025.6mb 51f 53f
10:48 6 7 mph 1025.6mb 51f 53f
10:36 6
mph
1025.6mb 51f 53f
10:30 5
mph
1025.6mb 51f 53f
10:24 5 7 mph 1025.6mb 51f 53f
10:18 3 5 mph 1025.6mb 51f 54f
10:12 3 5 mph 1025.7mb 51f 54f
10:06 2 3 mph 1025.7mb 51f 54f
10:00 2 3 mph 1025.7mb 51f 55f
9:54  -  1 mph 1025.7mb 51f 56f
9:48 1 2 mph 1025.7mb 51f 55f
9:36 3 5 mph 1025.8mb 51f 54f
9:30 2 3 mph 1025.7mb 51f 54f
9:24 3
mph
1025.7mb 51f 54f
9:18 3 6 mph 1025.7mb 51f 54f
9:12 5 6 mph 1025.8mb 51f 54f
9:06 2 5 mph 1025.8mb 51f 54f
9:00 3 6 mph 1025.8mb 51f 54f
8:54 5 6 mph 1025.7mb 51f 54f
8:48 3 5 mph 1025.6mb 51f 54f
8:36 5 7 mph 1025.6mb 51f 53f
8:30 6
mph
1025.6mb 51f 53f
8:24 6
mph
1025.7mb 51f 54f
8:18 3 5 mph 1025.6mb 51f 53f
8:12 3
mph
1025.6mb 51f 53f
8:06 3
mph
1025.6mb 51f 53f
8:00 3 5 mph 1025.7mb 51f 53f
7:54 2 3 mph 1025.7mb 51f 53f
7:48 2 3 mph 1025.6mb 51f 53f
7:36 2 3 mph 1025.6mb 51f 53f
7:30 2 3 mph 1025.6mb 51f 52f
7:24 3
mph
1025.5mb 51f 52f
7:18 3 5 mph 1025.5mb 51f 52f
7:12 3 5 mph 1025.5mb 51f 52f
7:06 2 3 mph 1025.5mb 51f 52f
7:00 3 5 mph 1025.5mb 51f 52f
6:54 2 3 mph 1025.5mb 51f 52f
6:48 2
mph
1025.4mb 51f 52f
6:36 1 2 mph 1025.3mb 51f 53f
6:30 2 3 mph 1025.3mb 51f 53f
6:24 1 3 mph 1025.3mb 51f 53f
6:18 2 3 mph 1025.3mb 51f 53f
6:12 2 3 mph 1025.3mb 51f 53f
6:06 1 2 mph 1025.3mb 51f 53f
6:00 2 3 mph 1025.3mb 51f 53f
5:54 2 5 mph 1025.3mb 51f 53f
5:48 2 3 mph 1025.2mb 51f 52f
5:36 2 3 mph 1025.1mb 51f 53f
5:30 2 3 mph 1025.1mb 51f 53f
5:24 2 3 mph 1025.1mb 51f 53f
5:18 2 3 mph 1025.1mb 51f 53f
5:12 2 3 mph 1025.1mb 51f 53f
5:06  -  1 mph 1025.1mb 51f 53f
5:00  -  1 mph 1025.1mb 51f 53f
4:54  -  mph 1025.1mb 51f 53f
4:48  -  2 mph 1025.1mb 51f 53f
4:36  -  mph 1025mb 51f 53f
4:30  -  1 mph 1025mb 51f 54f
4:24  -  1 mph 1025mb 51f 54f
4:18 1 2 mph 1025.1mb 51f 53f
4:12 1 3 mph 1025.1mb 51f 53f
4:06 1 2 mph 1025.1mb 51f 53f
4:00  -  2 mph 1025.1mb 51f 53f
3:54  -  2 mph 1025.2mb 51f 53f
3:48  -  3 mph 1025mb 51f 53f
3:36 1 3 mph 1025mb 51f 54f
3:30 1 2 mph 1025mb 51f 54f
3:24 1
mph
1025.1mb 51f 54f
3:18 1
mph
1025.1mb 51f 54f
3:12 1 2 mph 1025.1mb 51f 55f
3:06 1 2 mph 1025.1mb 51f 55f
3:00  -  2 mph 1025.1mb 51f 55f
2:54 1 3 mph 1025.1mb 51f 56f
2:48 1 3 mph 1025.1mb 51f 56f
2:36 3 6 mph 1025mb 51f 56f
2:30 6 7 mph 1025mb 51f 56f
2:24 6 7 mph 1025mb 51f 56f
2:18 5 7 mph 1025mb 51f 56f
2:12 6 7 mph 1025mb 51f 55f
2:06 3 5 mph 1025mb 51f 55f
2:00 2 3 mph 1025mb 51f 55f
1:54 1 2 mph 1025mb 51f 55f
1:48  -  mph 1025mb 51f 54f
1:36  -  1 mph 1025.1mb 51f 54f
1:30  -  2 mph 1025mb 51f 55f
1:24 1 2 mph 1025mb 51f 55f
1:18  -  mph 1025mb 51f 55f
1:12  -  mph 1025mb 51f 55f
1:06  -  1 mph 1025.1mb 51f 55f
1:00  -  1 mph 1025.1mb 51f 55f
12:54  -  1 mph 1025mb 51f 55f
12:48  -  2 mph 1024.9mb 51f 56f
12:36 5 6 mph 1024.9mb 51f 56f
12:30 6 7 mph 1024.8mb 51f 56f
12:24 6 8 mph 1024.8mb 51f 56f
12:18 7 9 mph 1024.7mb 51f 57f
12:12 7 9 mph 1024.7mb 51f 57f
12:06 6 8 mph 1024.7mb 51f 57f
12:00 3 5 mph 1024.6mb 51f 57f
vie 06/24 11:54 2 3 mph 1024.6mb 51f 57f
11:48  -  1 mph 1024.6mb 51f 57f
11:36  -  3 mph 1024.5mb 51f 57f
11:30 2 7 mph 1024.5mb 51f 58f
11:24 2 6 mph 1024.5mb 51f 58f
11:18 2 7 mph 1024.5mb 51f 58f
11:12 5 9 mph 1024.5mb 51f 58f
11:06 3 6 mph 1024.5mb 51f 57f
11:00 3 6 mph 1024.5mb 51f 57f
10:54 1 3 mph 1024.5mb 51f 57f
10:48 3 6 mph 1024.6mb 51f 58f
10:36  -  1 mph 1024.5mb 51f 57f
10:30 2 6 mph 1024.5mb 51f 58f
10:24 1 6 mph 1024.5mb 51f 58f
10:18 6 10 mph 1024.4mb 51f 58f
10:12 9 10 mph 1024.4mb 51f 58f
10:06 8 11 mph 1024.4mb 51f 58f
10:00 9 10 mph 1024.4mb 51f 58f
9:54 7 9 mph 1024.3mb 51f 58f
9:48 6 10 mph 1024.3mb 51f 58f
9:36 5 9 mph 1024.2mb 51f 58f
9:30 6 11 mph 1024.1mb 51f 58f
9:24 6 13 mph 1024mb 51f 58f
9:18 9 15 mph 1024mb 51f 58f
9:12 13 17 mph 1024mb 51f 59f
9:06 13 17 mph 1024mb 51f 59f
9:00 13 16 mph 1023.9mb 51f 59f
8:54 11 17 mph 1023.9mb 51f 59f
8:48 14 16 mph 1023.8mb 51f 59f
8:36 14 16 mph 1023.8mb 51f 59f
8:30 11 17 mph 1023.9mb 51f 59f
8:24 15 21 mph 1023.8mb 51f 60f
8:18 15 18 mph 1023.8mb 51f 60f
8:12 13 15 mph 1023.7mb 51f 60f
8:06 14 18 mph 1023.7mb 51f 59f
8:00 13 15 mph 1023.7mb 51f 59f
7:54 14 17 mph 1023.7mb 51f 59f
7:48 13 15 mph 1023.7mb 51f 60f
7:36 11 18 mph 1023.7mb 51f 60f
7:30 14 20 mph 1023.6mb 51f 60f
7:24 10 15 mph 1023.6mb 51f 60f
7:18 13 16 mph 1023.6mb 51f 60f
7:12 9 11 mph 1023.6mb 51f 59f
7:06 10 13 mph 1023.7mb 51f 59f
7:00 9 16 mph 1023.6mb 51f 59f
6:54 11 17 mph 1023.5mb 51f 59f
6:48 14 17 mph 1023.5mb 51f 59f
6:36  -  mph 1023.4mb 51f 59f
6:30  -  mph 1023.5mb 51f 59f
6:24  -  mph 1023.4mb 51f 59f
6:18  -  mph 1023.4mb 51f 59f
6:12  -  mph 1023.4mb 51f 60f
6:06  -  mph 1023.3mb 51f 60f
6:00  -  mph 1023.3mb 51f 60f
5:54  -  mph 1023.3mb 51f 61f
5:48  -  mph 1023.2mb 51f 61f
5:36 21 25 mph 1023.2mb 51f 61f
5:30 17 23 mph 1023.2mb 51f 62f
5:24 18 23 mph 1023.2mb 51f 62f
5:18 18 23 mph 1023.2mb 51f 61f
5:12 20 24 mph 1023.2mb 51f 61f
5:06 18 22 mph 1023.1mb 51f 61f
5:00 15 17 mph 1023.1mb 51f 61f
4:54 15 18 mph 1023.1mb 51f 61f
4:48 15 23 mph 1023.1mb 51f 61f
4:36 17 23 mph 1023.1mb 52f 62f
4:30 14 21 mph 1023mb 52f 63f
4:24 13 16 mph 1023mb 52f 63f
4:18 13 15 mph 1023mb 51f 63f
4:12 14 17 mph 1023mb 51f 62f
4:06 13 17 mph 1023mb 51f 62f
4:00 10 14 mph 1023mb 51f 61f
3:54 10 16 mph 1023mb 51f 62f
3:48 11 14 mph 1022.9mb 51f 61f
3:36 14 17 mph 1023mb 51f 61f
3:30 14 16 mph 1023mb 51f 61f
3:24 13 18 mph 1023mb 52f 61f
3:18 13 18 mph 1022.9mb 52f 61f
3:12 15 18 mph 1022.9mb 51f 61f
3:06 16 22 mph 1022.9mb 51f 61f
3:00 18 23 mph 1022.9mb 52f 61f
2:54 17 21 mph 1022.8mb 52f 61f
2:48 16 21 mph 1022.8mb 51f 61f
2:36 9 11 mph 1022.7mb 51f 60f
2:30 7 8 mph 1022.7mb 51f 59f
2:24 6 10 mph 1022.8mb 51f 59f
2:18 7 10 mph 1022.8mb 51f 58f
2:12 7 10 mph 1022.9mb 51f 58f
2:06 9 14 mph 1022.8mb 51f 57f
2:00 9 14 mph 1022.8mb 51f 58f
1:54 8 10 mph 1022.7mb 51f 57f
1:48 7 10 mph 1022.7mb 51f 57f
1:36 7 9 mph 1022.7mb 51f 57f
1:30 6 9 mph 1022.7mb 51f 57f
1:24 6 10 mph 1022.7mb 51f 57f
1:18 7 10 mph 1022.6mb 51f 56f
1:12 8 11 mph 1022.6mb 51f 57f
1:06 6 9 mph 1022.5mb 51f 56f
1:00 7 9 mph 1022.4mb 51f 56f
12:54 5 10 mph 1022.4mb 51f 56f
12:48 7 13 mph 1022.3mb 51f 56f
12:36 7 13 mph 1022.2mb 51f 56f
12:30 6 11 mph 1022.2mb 51f 56f
12:24 6 9 mph 1022.1mb 51f 56f
12:18 6 13 mph 1022.1mb 51f 56f
12:12 8 14 mph 1022.1mb 51f 56f
12:06 8 13 mph 1022mb 51f 55f
12:00 7 10 mph 1022mb 51f 56f
11:54 6 11 mph 1021.9mb 51f 56f
11:48 7 13 mph 1021.9mb 51f 56f